A- A+ FrançaisEnglishEspañol中国

Services sur Internet Soldes sur Internet Des idées de cadeaux Météo Météo aéro

La météo à : Autours de vous Tarbes-Lourdes-PyrénéesBiarritz-Bayonne-Anglet Paris-Orly Chelles-Le-Pin

manche à air

La météo aéronautique pour les pilotes, la préparation du vol avec les METAR (METeorological Aerodrome Report, message d'observation des conditions météorologiques pour l'aviation) et Les TAF (Terminal Aerodrome Forecast : message de prévision à court terme des conditions météorologiques pour l'aviation). Et les autres ressources comme les VAC (Visual Approch Chart) et les NOTAM (Notice To Airman) pour préprer les vols.

Aéroport Ramstein (Allemagne) / OACI ETAR/ IATA RMS

L'altitude de l'aéroport Ramstein est de 237 m = 778 ft. Il est situé à proximité de Ramstein (Allemagne). La météo générale à 5 jours est disponible pour Kindsbach situé à 2.5 km.

METAR de l'aéroport Ramstein - ETAR

ETAR 110811Z AUTO 26004KT 9999 -RA BKN025 OVC050 04/01 A2989 RMK AO2 RAB11 BKN V OVC SLP136 $

Décodage du METAR de l'aéroport Ramstein (DE)

METAR émis par ETAR le mercredi 11 décembre 2019 à 08:11 heure TU. C'est un METAR généré automatiquement. Attention ce METAR est obsolète car il a été émis il y a 14 heure et 28 minutes.

La visibilité est de supérieure à 10 km = supérieure à 6.2 sm.

La température est de 4°C = 39 °F et le point rosée est de 1°C = 34 °F . Ce qui correspond à 81% d'humidité relative.

Le QNH est de 1012 hPa = 29.88 inHg

Vent de 4 kt = 7 km/h, orienté à 260°.

Nuages : Couverture nuageuse fragmentée à 2500 ft = 760 mètres. Couverture nuageuse soudée à 5000 ft = 1520 mètres.

-RA

RMK AO2 pluie B11 couverture nuageuse fragmentée à V couverture nuageuse soudée à SLP136 $

TAF de l'aéroport Ramstein - ETAR

ETAR 110200Z 1102/1208 20009KT 9999 OVC100 QNH2997INS

ETAR 110200Z 1102/1208 20009KT 9999 couverture nuageuse soudée à 100 QNH2997INS

Aéroport à proximité de Ramstein

Météo générale à 5 jours à Kindsbach (2.5 km)Aéroport Pirmasens (21 km)Aéroport Zweibruecken (29 km)Aéroport Hoppstaedten-Weiersbach (36 km)Aéroport Idar-Oberstein Goettschied (38 km)Aéroport Bad Sobernheim Domberg (40 km)Aéroport Bad Duerkheim (43 km)

Vue aérienne de l'aéroport Ramstein

NOTAM de l'aéroport Ramstein

Les NOTAM sont fournis sans aucune garantie de leur actualité. Le pilote est le seul responsable de la vérification de sa validité avant de l'utiliser opérationnellement pour préparer un vol ou l'utiliser lors de sa navigation.

Pas de NOTAM

Sources des données